createdAt,value
2018-08-25T00:00:24.279Z,0
2018-08-25T00:01:04.838Z,0
2018-08-25T00:01:45.417Z,0
2018-08-25T00:02:25.987Z,0
2018-08-25T00:03:06.530Z,0
2018-08-25T00:03:47.108Z,0
2018-08-25T00:04:27.679Z,0
2018-08-25T00:05:08.241Z,0
2018-08-25T00:05:48.818Z,0
2018-08-25T00:06:29.368Z,0
2018-08-25T00:07:09.934Z,0
2018-08-25T00:07:50.502Z,0
2018-08-25T00:08:31.072Z,0
2018-08-25T00:09:11.627Z,0
2018-08-25T00:09:52.192Z,0
2018-08-25T00:10:32.752Z,0
2018-08-25T00:11:13.309Z,0
2018-08-25T00:11:53.882Z,0
2018-08-25T00:12:34.445Z,0
2018-08-25T00:13:15.037Z,0
2018-08-25T00:13:55.608Z,0
2018-08-25T00:14:36.163Z,0
2018-08-25T00:15:16.720Z,0
2018-08-25T00:15:57.290Z,0
2018-08-25T00:16:37.845Z,0
2018-08-25T00:17:18.424Z,0
2018-08-25T00:17:58.994Z,0
2018-08-25T00:18:39.706Z,0
2018-08-25T00:19:20.262Z,0
2018-08-25T00:20:00.834Z,0
2018-08-25T00:20:41.400Z,0
2018-08-25T00:21:21.974Z,0
2018-08-25T00:22:02.537Z,0
2018-08-25T00:22:43.105Z,0
2018-08-25T00:23:23.663Z,0
2018-08-25T00:24:04.241Z,0
2018-08-25T00:24:44.807Z,0
2018-08-25T00:25:25.369Z,0
2018-08-25T00:26:05.928Z,0
2018-08-25T00:26:46.498Z,0
2018-08-25T00:27:27.086Z,0
2018-08-25T00:28:07.646Z,0
2018-08-25T00:28:48.207Z,0
2018-08-25T00:29:28.786Z,0
2018-08-25T00:30:09.354Z,0
2018-08-25T00:30:49.929Z,0
2018-08-25T00:31:30.484Z,0
2018-08-25T00:32:11.034Z,0
2018-08-25T00:32:51.601Z,0
2018-08-25T00:33:32.170Z,0
2018-08-25T00:34:12.733Z,0
2018-08-25T00:34:53.308Z,0
2018-08-25T00:35:33.868Z,0
2018-08-25T00:36:14.454Z,0
2018-08-25T00:36:55.024Z,0
2018-08-25T00:37:35.588Z,0
2018-08-25T00:38:16.164Z,0
2018-08-25T00:38:56.720Z,0
2018-08-25T00:39:37.294Z,0
2018-08-25T00:40:17.851Z,0
2018-08-25T00:40:58.402Z,0
2018-08-25T00:41:38.944Z,0
2018-08-25T00:42:19.509Z,0
2018-08-25T00:43:00.081Z,0
2018-08-25T00:43:40.650Z,0
2018-08-25T00:44:21.210Z,0
2018-08-25T00:45:01.783Z,0
2018-08-25T00:45:42.356Z,0
2018-08-25T00:46:22.896Z,0
2018-08-25T00:47:03.448Z,0
2018-08-25T00:47:44.010Z,0
2018-08-25T00:48:24.577Z,0
2018-08-25T00:49:05.150Z,0
2018-08-25T00:49:45.718Z,0
2018-08-25T00:50:26.284Z,0
2018-08-25T00:51:06.860Z,0
2018-08-25T00:51:47.417Z,0
2018-08-25T00:52:27.981Z,0
2018-08-25T00:53:08.561Z,0
2018-08-25T00:53:49.114Z,0
2018-08-25T00:54:29.679Z,0
2018-08-25T00:55:10.246Z,0
2018-08-25T00:55:50.814Z,0
2018-08-25T00:56:31.381Z,0
2018-08-25T00:57:11.938Z,0
2018-08-25T00:57:52.517Z,0
2018-08-25T00:58:33.078Z,0
2018-08-25T00:59:13.687Z,0
2018-08-25T00:59:54.208Z,0
2018-08-25T01:00:34.789Z,0
2018-08-25T01:01:15.360Z,0
2018-08-25T01:01:55.920Z,0
2018-08-25T01:02:36.485Z,0
2018-08-25T01:03:17.040Z,0
2018-08-25T01:03:57.608Z,0
2018-08-25T01:04:38.173Z,0
2018-08-25T01:05:18.743Z,0
2018-08-25T01:05:59.300Z,0
2018-08-25T01:06:39.869Z,0
2018-08-25T01:07:20.426Z,0
2018-08-25T01:08:00.993Z,0
2018-08-25T01:08:41.554Z,0
2018-08-25T01:09:22.116Z,0
2018-08-25T01:10:02.678Z,0
2018-08-25T01:10:43.264Z,0
2018-08-25T01:11:23.836Z,0
2018-08-25T01:12:04.402Z,0
2018-08-25T01:12:44.984Z,0
2018-08-25T01:13:25.528Z,0
2018-08-25T01:14:06.093Z,0
2018-08-25T01:14:46.629Z,0
2018-08-25T01:15:27.206Z,0
2018-08-25T01:16:07.768Z,0
2018-08-25T01:16:48.347Z,0
2018-08-25T01:17:28.912Z,0
2018-08-25T01:18:09.494Z,0
2018-08-25T01:18:50.078Z,0
2018-08-25T01:19:30.642Z,0
2018-08-25T01:20:11.208Z,0
2018-08-25T01:20:51.777Z,0
2018-08-25T01:21:32.315Z,0
2018-08-25T01:22:12.874Z,0
2018-08-25T01:22:53.452Z,0
2018-08-25T01:23:34.001Z,0
2018-08-25T01:24:14.569Z,0
2018-08-25T01:24:55.126Z,0
2018-08-25T01:25:35.680Z,0
2018-08-25T01:26:16.249Z,0
2018-08-25T01:26:56.829Z,0
2018-08-25T01:27:37.405Z,0
2018-08-25T01:28:17.961Z,0
2018-08-25T01:28:58.523Z,0
2018-08-25T01:29:39.089Z,0
2018-08-25T01:30:19.645Z,0
2018-08-25T01:31:00.251Z,0
2018-08-25T01:31:40.817Z,0
2018-08-25T01:32:21.365Z,0
2018-08-25T01:33:01.937Z,0
2018-08-25T01:33:42.496Z,0
2018-08-25T01:34:23.101Z,0
2018-08-25T01:35:03.654Z,0
2018-08-25T01:35:44.220Z,0
2018-08-25T01:36:24.778Z,0
2018-08-25T01:37:05.318Z,0
2018-08-25T01:37:45.893Z,0
2018-08-25T01:38:26.567Z,0
2018-08-25T01:39:07.136Z,0
2018-08-25T01:39:47.722Z,0
2018-08-25T01:40:28.273Z,0
2018-08-25T01:41:08.819Z,0
2018-08-25T01:41:49.402Z,0
2018-08-25T01:42:29.993Z,0
2018-08-25T01:43:10.559Z,0
2018-08-25T01:43:51.111Z,0
2018-08-25T01:44:31.677Z,0
2018-08-25T01:45:12.272Z,0
2018-08-25T01:45:52.835Z,0
2018-08-25T01:46:33.414Z,0
2018-08-25T01:47:13.996Z,0
2018-08-25T01:47:54.568Z,0
2018-08-25T01:48:35.134Z,0
2018-08-25T01:49:15.739Z,0
2018-08-25T01:49:56.306Z,0
2018-08-25T01:50:36.871Z,0
2018-08-25T01:51:17.434Z,0
2018-08-25T01:51:58.007Z,0
2018-08-25T01:52:38.572Z,0
2018-08-25T01:53:19.123Z,0
2018-08-25T01:53:59.702Z,0
2018-08-25T01:54:40.281Z,0
2018-08-25T01:55:20.867Z,0
2018-08-25T01:56:01.423Z,0
2018-08-25T01:56:41.994Z,0
2018-08-25T01:57:22.580Z,0
2018-08-25T01:58:03.233Z,0
2018-08-25T01:58:43.789Z,0
2018-08-25T01:59:24.362Z,0
2018-08-25T02:00:04.916Z,0
2018-08-25T02:00:45.471Z,0
2018-08-25T02:01:26.043Z,0
2018-08-25T02:02:06.636Z,0
2018-08-25T02:02:47.289Z,0
2018-08-25T02:03:27.799Z,0
2018-08-25T02:04:08.362Z,0
2018-08-25T02:04:48.954Z,0
2018-08-25T02:05:29.514Z,0
2018-08-25T02:06:10.126Z,0
2018-08-25T02:06:50.693Z,0
2018-08-25T02:07:31.241Z,0
2018-08-25T02:08:11.819Z,0
2018-08-25T02:08:52.414Z,0
2018-08-25T02:09:33.007Z,0
2018-08-25T02:10:13.557Z,0
2018-08-25T02:10:54.130Z,0
2018-08-25T02:11:34.707Z,0
2018-08-25T02:12:15.285Z,0
2018-08-25T02:12:55.867Z,0
2018-08-25T02:13:36.441Z,0
2018-08-25T02:14:16.991Z,0
2018-08-25T02:14:57.559Z,0
2018-08-25T02:15:38.123Z,0
2018-08-25T02:16:18.680Z,0
2018-08-25T02:16:59.253Z,0
2018-08-25T02:17:39.821Z,0
2018-08-25T02:18:20.386Z,0
2018-08-25T02:19:00.978Z,0
2018-08-25T02:19:41.529Z,0
2018-08-25T02:20:22.085Z,0
2018-08-25T02:21:02.651Z,0
2018-08-25T02:21:43.226Z,0
2018-08-25T02:22:23.795Z,0
2018-08-25T02:23:04.413Z,0
2018-08-25T02:23:44.975Z,0
2018-08-25T02:24:25.553Z,0
2018-08-25T02:25:06.114Z,0
2018-08-25T02:25:46.733Z,0
2018-08-25T02:26:27.240Z,0
2018-08-25T02:27:07.857Z,0
2018-08-25T02:27:48.416Z,0
2018-08-25T02:28:29.008Z,0
2018-08-25T02:29:09.543Z,0
2018-08-25T02:29:50.103Z,0
2018-08-25T02:30:30.690Z,0
2018-08-25T02:31:11.256Z,0
2018-08-25T02:31:51.823Z,0
2018-08-25T02:32:32.394Z,0
2018-08-25T02:33:12.958Z,0
2018-08-25T02:33:53.531Z,0
2018-08-25T02:34:34.096Z,0
2018-08-25T02:35:14.877Z,0
2018-08-25T02:35:55.431Z,0
2018-08-25T02:36:35.990Z,0
2018-08-25T02:37:16.554Z,0
2018-08-25T02:37:57.123Z,0
2018-08-25T02:38:37.743Z,0
2018-08-25T02:39:18.244Z,0
2018-08-25T02:39:58.815Z,0
2018-08-25T02:40:39.367Z,0
2018-08-25T02:41:19.933Z,0
2018-08-25T02:42:00.539Z,0
2018-08-25T02:42:41.087Z,0
2018-08-25T02:43:21.651Z,0
2018-08-25T02:44:02.216Z,0
2018-08-25T02:44:42.782Z,0
2018-08-25T02:45:23.341Z,0
2018-08-25T02:46:03.938Z,0
2018-08-25T02:46:44.506Z,0
2018-08-25T02:47:25.075Z,0
2018-08-25T02:48:05.711Z,0
2018-08-25T02:48:46.272Z,0
2018-08-25T02:49:26.833Z,0
2018-08-25T02:50:07.399Z,0
2018-08-25T02:50:47.980Z,0
2018-08-25T02:51:28.549Z,0
2018-08-25T02:52:09.105Z,0
2018-08-25T02:52:49.666Z,0
2018-08-25T02:53:30.225Z,0
2018-08-25T02:54:10.792Z,0
2018-08-25T02:54:51.356Z,0
2018-08-25T02:55:31.899Z,0
2018-08-25T02:56:12.482Z,0
2018-08-25T02:56:53.058Z,0
2018-08-25T02:57:33.597Z,0
2018-08-25T02:58:14.148Z,0
2018-08-25T02:58:54.686Z,0
2018-08-25T02:59:35.260Z,0
2018-08-25T03:00:15.826Z,0
2018-08-25T03:00:56.469Z,0
2018-08-25T03:01:36.996Z,0
2018-08-25T03:02:17.564Z,0
2018-08-25T03:02:58.134Z,0
2018-08-25T03:03:38.700Z,0
2018-08-25T03:04:19.267Z,0
2018-08-25T03:04:59.822Z,0
2018-08-25T03:05:40.391Z,0
2018-08-25T03:06:20.951Z,0
2018-08-25T03:07:01.510Z,0
2018-08-25T03:07:42.087Z,0
2018-08-25T03:08:22.674Z,0
2018-08-25T03:09:03.238Z,0
2018-08-25T03:09:43.805Z,0
2018-08-25T03:10:24.372Z,0
2018-08-25T03:11:04.938Z,0
2018-08-25T03:11:45.511Z,0
2018-08-25T03:12:26.109Z,0
2018-08-25T03:13:06.722Z,0
2018-08-25T03:13:47.293Z,0
2018-08-25T03:14:27.887Z,0
2018-08-25T03:15:08.429Z,0
2018-08-25T03:15:48.991Z,0
2018-08-25T03:16:29.597Z,0
2018-08-25T03:17:10.184Z,0
2018-08-25T03:17:50.751Z,0
2018-08-25T03:18:31.311Z,0
2018-08-25T03:19:11.888Z,0
2018-08-25T03:19:52.434Z,0
2018-08-25T03:20:33.018Z,0
2018-08-25T03:21:13.605Z,0
2018-08-25T03:21:54.162Z,0
2018-08-25T03:22:34.706Z,0
2018-08-25T03:23:15.282Z,0
2018-08-25T03:23:55.851Z,0
2018-08-25T03:24:36.423Z,0
2018-08-25T03:25:16.976Z,0
2018-08-25T03:25:57.553Z,0
2018-08-25T03:26:38.119Z,0
2018-08-25T03:27:18.695Z,0
2018-08-25T03:27:59.256Z,0
2018-08-25T03:28:39.849Z,0
2018-08-25T03:29:20.435Z,0
2018-08-25T03:30:01.004Z,0
2018-08-25T03:30:41.586Z,0
2018-08-25T03:31:22.164Z,0
2018-08-25T03:32:02.731Z,0
2018-08-25T03:32:43.280Z,0
2018-08-25T03:33:23.869Z,0
2018-08-25T03:34:04.427Z,0
2018-08-25T03:34:44.984Z,0
2018-08-25T03:35:25.535Z,0
2018-08-25T03:36:06.123Z,0
2018-08-25T03:36:46.683Z,0
2018-08-25T03:37:27.255Z,0
2018-08-25T03:38:07.834Z,0
2018-08-25T03:38:48.387Z,0
2018-08-25T03:39:28.973Z,0
2018-08-25T03:40:09.583Z,0
2018-08-25T03:40:50.143Z,0
2018-08-25T03:41:30.709Z,0
2018-08-25T03:42:11.267Z,0
2018-08-25T03:42:51.827Z,0
2018-08-25T03:43:32.390Z,0
2018-08-25T03:44:12.963Z,0
2018-08-25T03:44:53.519Z,0
2018-08-25T03:45:34.088Z,4
2018-08-25T03:46:14.652Z,4
2018-08-25T03:46:55.197Z,4
2018-08-25T03:47:35.770Z,0
2018-08-25T03:48:16.368Z,4
2018-08-25T03:48:56.936Z,4
2018-08-25T03:49:37.489Z,4
2018-08-25T03:50:18.073Z,4
2018-08-25T03:50:58.635Z,4
2018-08-25T03:51:39.217Z,4
2018-08-25T03:52:19.789Z,8
2018-08-25T03:53:00.355Z,8
2018-08-25T03:53:40.936Z,8
2018-08-25T03:54:21.482Z,4
2018-08-25T03:55:02.057Z,8
2018-08-25T03:55:42.629Z,8
2018-08-25T03:56:23.203Z,8
2018-08-25T03:57:03.764Z,8
2018-08-25T03:57:44.341Z,12
2018-08-25T03:58:24.941Z,12
2018-08-25T03:59:05.490Z,8
2018-08-25T03:59:46.056Z,8
2018-08-25T04:00:26.657Z,12
2018-08-25T04:01:07.227Z,12
2018-08-25T04:01:47.781Z,12
2018-08-25T04:02:28.354Z,16
2018-08-25T04:03:08.912Z,12
2018-08-25T04:03:49.490Z,12
2018-08-25T04:04:30.032Z,16
2018-08-25T04:05:10.587Z,16
2018-08-25T04:05:51.195Z,16
2018-08-25T04:06:31.781Z,16
2018-08-25T04:07:12.351Z,16
2018-08-25T04:07:52.906Z,20
2018-08-25T04:08:33.487Z,20
2018-08-25T04:09:14.053Z,20
2018-08-25T04:09:54.629Z,20
2018-08-25T04:10:35.210Z,24
2018-08-25T04:11:15.766Z,24
2018-08-25T04:11:56.328Z,24
2018-08-25T04:12:36.941Z,28
2018-08-25T04:13:17.599Z,32
2018-08-25T04:13:58.084Z,32
2018-08-25T04:14:38.654Z,36
2018-08-25T04:15:19.220Z,40
2018-08-25T04:15:59.773Z,44
2018-08-25T04:16:40.343Z,44
2018-08-25T04:17:20.899Z,52
2018-08-25T04:18:01.481Z,56
2018-08-25T04:18:42.034Z,64
2018-08-25T04:19:22.602Z,68
2018-08-25T04:20:03.172Z,72
2018-08-25T04:20:43.722Z,80
2018-08-25T04:21:24.276Z,84
2018-08-25T04:22:04.857Z,92
2018-08-25T04:22:45.419Z,96
2018-08-25T04:23:26.014Z,100
2018-08-25T04:24:06.584Z,104
2018-08-25T04:24:47.174Z,112
2018-08-25T04:25:27.921Z,116
2018-08-25T04:26:08.524Z,124
2018-08-25T04:26:49.129Z,124
2018-08-25T04:27:29.696Z,128
2018-08-25T04:28:10.294Z,128
2018-08-25T04:28:50.849Z,128
2018-08-25T04:29:31.410Z,132
2018-08-25T04:30:12.112Z,136
2018-08-25T04:30:52.721Z,140
2018-08-25T04:31:33.287Z,144
2018-08-25T04:32:13.851Z,148
2018-08-25T04:32:54.403Z,152
2018-08-25T04:33:35.028Z,160
2018-08-25T04:34:15.544Z,176
2018-08-25T04:34:56.102Z,184
2018-08-25T04:35:36.666Z,196
2018-08-25T04:36:17.251Z,216
2018-08-25T04:36:57.816Z,220
2018-08-25T04:37:38.391Z,224
2018-08-25T04:38:19.013Z,228
2018-08-25T04:38:59.602Z,232
2018-08-25T04:39:40.159Z,232
2018-08-25T04:40:20.733Z,240
2018-08-25T04:41:01.383Z,244
2018-08-25T04:41:41.957Z,240
2018-08-25T04:42:22.541Z,244
2018-08-25T04:43:03.079Z,244
2018-08-25T04:43:43.660Z,244
2018-08-25T04:44:24.232Z,252
2018-08-25T04:45:04.799Z,256
2018-08-25T04:45:45.366Z,260
2018-08-25T04:46:25.927Z,272
2018-08-25T04:47:06.492Z,276
2018-08-25T04:47:47.032Z,280
2018-08-25T04:48:27.616Z,284
2018-08-25T04:49:08.195Z,288
2018-08-25T04:49:48.749Z,292
2018-08-25T04:50:29.314Z,296
2018-08-25T04:51:09.902Z,308
2018-08-25T04:51:50.475Z,316
2018-08-25T04:52:31.056Z,328
2018-08-25T04:53:11.630Z,336
2018-08-25T04:53:52.196Z,348
2018-08-25T04:54:32.756Z,356
2018-08-25T04:55:13.327Z,364
2018-08-25T04:55:53.893Z,376
2018-08-25T04:56:34.457Z,388
2018-08-25T04:57:15.043Z,400
2018-08-25T04:57:55.595Z,420
2018-08-25T04:58:36.153Z,436
2018-08-25T04:59:16.718Z,448
2018-08-25T04:59:57.284Z,456
2018-08-25T05:00:37.852Z,464
2018-08-25T05:01:18.416Z,468
2018-08-25T05:01:59.031Z,476
2018-08-25T05:02:39.554Z,488
2018-08-25T05:03:20.177Z,496
2018-08-25T05:04:00.739Z,504
2018-08-25T05:04:41.309Z,512
2018-08-25T05:05:21.891Z,516
2018-08-25T05:06:02.451Z,516
2018-08-25T05:06:43.013Z,516
2018-08-25T05:07:23.571Z,516
2018-08-25T05:08:04.149Z,512
2018-08-25T05:08:44.696Z,520
2018-08-25T05:09:25.295Z,528
2018-08-25T05:10:05.814Z,540
2018-08-25T05:10:46.388Z,552
2018-08-25T05:11:26.952Z,568
2018-08-25T05:12:07.520Z,580
2018-08-25T05:12:48.110Z,592
2018-08-25T05:13:28.679Z,612
2018-08-25T05:14:09.233Z,640
2018-08-25T05:14:49.799Z,672
2018-08-25T05:15:30.366Z,704
2018-08-25T05:16:10.952Z,720
2018-08-25T05:16:51.538Z,720
2018-08-25T05:17:32.089Z,708
2018-08-25T05:18:12.647Z,696
2018-08-25T05:18:53.206Z,680
2018-08-25T05:19:33.791Z,672
2018-08-25T05:20:14.349Z,676
2018-08-25T05:20:54.923Z,684
2018-08-25T05:21:35.485Z,704
2018-08-25T05:22:16.055Z,736
2018-08-25T05:22:56.621Z,764
2018-08-25T05:23:37.200Z,800
2018-08-25T05:24:17.779Z,840
2018-08-25T05:24:58.362Z,868
2018-08-25T05:25:38.913Z,896
2018-08-25T05:26:19.498Z,920
2018-08-25T05:27:00.071Z,928
2018-08-25T05:27:40.659Z,916
2018-08-25T05:28:21.206Z,896
2018-08-25T05:29:01.763Z,892
2018-08-25T05:29:42.337Z,896
2018-08-25T05:30:22.891Z,908
2018-08-25T05:31:03.447Z,936
2018-08-25T05:31:44.015Z,968
2018-08-25T05:32:24.584Z,996
2018-08-25T05:33:05.143Z,1020
2018-08-25T05:33:45.733Z,1044
2018-08-25T05:34:26.294Z,1068
2018-08-25T05:35:06.863Z,1096
2018-08-25T05:35:47.415Z,1116
2018-08-25T05:36:27.989Z,1128
2018-08-25T05:37:08.562Z,1152
2018-08-25T05:37:49.127Z,1176
2018-08-25T05:38:29.688Z,1196
2018-08-25T05:39:10.256Z,1216
2018-08-25T05:39:50.821Z,1244
2018-08-25T05:40:31.375Z,1284
2018-08-25T05:41:11.936Z,1320
2018-08-25T05:41:52.503Z,1372
2018-08-25T05:42:33.107Z,1420
2018-08-25T05:43:13.817Z,1452
2018-08-25T05:43:54.370Z,1436
2018-08-25T05:44:34.933Z,1416
2018-08-25T05:45:15.512Z,1384
2018-08-25T05:45:56.084Z,1388
2018-08-25T05:46:36.656Z,1436
2018-08-25T05:47:17.220Z,1492
2018-08-25T05:47:57.769Z,1608
2018-08-25T05:48:38.356Z,1712
2018-08-25T05:49:18.939Z,1776
2018-08-25T05:49:59.525Z,1816
2018-08-25T05:50:40.118Z,1836
2018-08-25T05:51:20.685Z,1836
2018-08-25T05:52:01.285Z,1812
2018-08-25T05:52:41.858Z,1800
2018-08-25T05:53:22.447Z,1800
2018-08-25T05:54:02.999Z,1748
2018-08-25T05:54:43.555Z,1668
2018-08-25T05:55:24.207Z,1628
2018-08-25T05:56:06.100Z,1608
2018-08-25T05:56:47.568Z,1644
2018-08-25T05:57:29.709Z,1768
2018-08-25T05:58:11.959Z,1916
2018-08-25T05:58:54.098Z,2000
2018-08-25T05:59:37.475Z,2144
2018-08-25T06:00:21.586Z,2360
2018-08-25T06:01:03.927Z,2560
2018-08-25T06:01:46.135Z,2772
2018-08-25T06:02:31.098Z,2972
2018-08-25T06:03:12.249Z,3092
2018-08-25T06:03:54.905Z,3220
2018-08-25T06:04:37.010Z,3308
2018-08-25T06:05:19.022Z,3344
2018-08-25T06:06:01.101Z,3316
2018-08-25T06:06:42.695Z,3320
2018-08-25T06:07:24.520Z,3416
2018-08-25T06:08:05.900Z,3584
2018-08-25T06:08:47.917Z,3768
2018-08-25T06:09:29.356Z,4040
2018-08-25T06:10:11.316Z,4364
2018-08-25T06:10:53.377Z,4768
2018-08-25T06:11:37.620Z,5244
2018-08-25T06:12:19.533Z,5720
2018-08-25T06:13:02.152Z,6252
2018-08-25T06:13:43.554Z,6508
2018-08-25T06:14:25.943Z,6532
2018-08-25T06:15:09.121Z,6620
2018-08-25T06:15:51.369Z,6348
2018-08-25T06:16:33.493Z,6276
2018-08-25T06:17:15.485Z,6244
2018-08-25T06:17:56.906Z,6156
2018-08-25T06:18:39.139Z,6132
2018-08-25T06:19:26.073Z,6008
2018-08-25T06:20:07.511Z,5724
2018-08-25T06:20:48.944Z,5456
2018-08-25T06:21:31.009Z,5340
2018-08-25T06:22:15.603Z,5436
2018-08-25T06:23:00.478Z,5548
2018-08-25T06:23:42.766Z,5708
2018-08-25T06:24:26.742Z,6184
2018-08-25T06:25:08.851Z,6100
2018-08-25T06:25:50.132Z,5972
2018-08-25T06:26:31.411Z,6044
2018-08-25T06:27:13.138Z,5724
2018-08-25T06:27:53.710Z,5300
2018-08-25T06:28:34.281Z,5192
2018-08-25T06:29:14.840Z,5044
2018-08-25T06:29:55.397Z,4792
2018-08-25T06:30:35.969Z,5296
2018-08-25T06:31:16.517Z,6272
2018-08-25T06:31:57.105Z,7816
2018-08-25T06:32:37.663Z,9432
2018-08-25T06:33:18.228Z,9368
2018-08-25T06:33:58.790Z,14688
2018-08-25T06:34:39.462Z,9720
2018-08-25T06:35:19.989Z,12380
2018-08-25T06:36:00.647Z,11128
2018-08-25T06:36:41.240Z,11536
2018-08-25T06:37:21.717Z,13424
2018-08-25T06:38:02.295Z,13048
2018-08-25T06:38:42.854Z,23072
2018-08-25T06:39:23.446Z,20576
2018-08-25T06:40:04.035Z,15232
2018-08-25T06:40:44.609Z,13788
2018-08-25T06:41:25.204Z,13448
2018-08-25T06:42:05.768Z,19840
2018-08-25T06:42:46.337Z,16928
2018-08-25T06:43:26.950Z,13420
2018-08-25T06:44:07.509Z,11956
2018-08-25T06:44:48.078Z,13412
2018-08-25T06:45:28.647Z,13268
2018-08-25T06:46:09.216Z,14020
2018-08-25T06:46:49.827Z,40768
2018-08-25T06:47:30.424Z,39072
2018-08-25T06:48:10.958Z,40000
2018-08-25T06:48:51.523Z,40416
2018-08-25T06:49:32.108Z,40192
2018-08-25T06:50:12.685Z,40032
2018-08-25T06:50:53.256Z,39968
2018-08-25T06:51:33.815Z,38976
2018-08-25T06:52:14.416Z,38368
2018-08-25T06:52:55.022Z,38176
2018-08-25T06:53:35.609Z,38112
2018-08-25T06:54:16.209Z,37952
2018-08-25T06:54:56.784Z,37248
2018-08-25T06:55:37.324Z,37056
2018-08-25T06:56:17.916Z,35328
2018-08-25T06:56:58.508Z,36160
2018-08-25T06:57:39.076Z,36672
2018-08-25T06:58:19.662Z,36320
2018-08-25T06:59:00.630Z,37536
2018-08-25T06:59:41.193Z,36576
2018-08-25T07:00:21.774Z,34656
2018-08-25T07:01:02.385Z,33408
2018-08-25T07:01:42.940Z,35680
2018-08-25T07:02:23.535Z,32576
2018-08-25T07:03:04.209Z,21600
2018-08-25T07:03:44.794Z,18368
2018-08-25T07:04:25.507Z,11140
2018-08-25T07:05:06.353Z,10568
2018-08-25T07:05:47.084Z,10688
2018-08-25T07:06:27.634Z,20736
2018-08-25T07:07:08.216Z,12160
2018-08-25T07:07:48.867Z,12864
2018-08-25T07:08:29.472Z,24416
2018-08-25T07:09:10.042Z,16064
2018-08-25T07:09:50.606Z,8436
2018-08-25T07:10:31.386Z,7208
2018-08-25T07:11:11.982Z,6356
2018-08-25T07:11:52.553Z,4796
2018-08-25T07:12:33.168Z,4300
2018-08-25T07:13:13.748Z,4008
2018-08-25T07:13:54.312Z,3864
2018-08-25T07:14:34.882Z,3880
2018-08-25T07:15:15.464Z,3888
2018-08-25T07:15:56.026Z,3964
2018-08-25T07:16:36.663Z,3964
2018-08-25T07:17:17.226Z,3908
2018-08-25T07:17:57.808Z,3892
2018-08-25T07:18:38.355Z,3844
2018-08-25T07:19:19.067Z,3744
2018-08-25T07:19:59.652Z,3616
2018-08-25T07:20:40.491Z,3656
2018-08-25T07:21:21.110Z,3916
2018-08-25T07:22:01.687Z,4304
2018-08-25T07:22:42.278Z,4636
2018-08-25T07:23:22.883Z,5444
2018-08-25T07:24:03.508Z,6000
2018-08-25T07:24:44.037Z,8528
2018-08-25T07:25:24.656Z,6960
2018-08-25T07:26:05.303Z,7596
2018-08-25T07:26:45.802Z,8088
2018-08-25T07:27:26.380Z,8656
2018-08-25T07:28:06.953Z,8956
2018-08-25T07:28:47.530Z,9148
2018-08-25T07:29:28.085Z,13964
2018-08-25T07:30:08.640Z,13348
2018-08-25T07:30:49.236Z,11364
2018-08-25T07:31:29.787Z,16128
2018-08-25T07:32:10.438Z,13764
2018-08-25T07:32:51.002Z,11384
2018-08-25T07:33:31.611Z,10464
2018-08-25T07:34:12.163Z,7516
2018-08-25T07:34:52.757Z,7092
2018-08-25T07:35:33.310Z,6704
2018-08-25T07:36:13.867Z,6824
2018-08-25T07:36:54.437Z,6612
2018-08-25T07:37:34.999Z,5920
2018-08-25T07:38:15.599Z,5392
2018-08-25T07:38:56.134Z,5076
2018-08-25T07:39:36.685Z,5068
2018-08-25T07:40:17.269Z,5092
2018-08-25T07:40:57.845Z,5004
2018-08-25T07:41:38.404Z,4996
2018-08-25T07:42:18.984Z,5532
2018-08-25T07:42:59.541Z,5656
2018-08-25T07:43:40.109Z,5952
2018-08-25T07:44:20.734Z,6944
2018-08-25T07:45:01.344Z,8032
2018-08-25T07:45:42.023Z,9064
2018-08-25T07:46:22.585Z,7740
2018-08-25T07:47:03.160Z,10708
2018-08-25T07:47:43.741Z,7704
2018-08-25T07:48:24.322Z,7776
2018-08-25T07:49:04.877Z,8280
2018-08-25T07:49:45.459Z,9908
2018-08-25T07:50:26.014Z,9480
2018-08-25T07:51:06.622Z,9780
2018-08-25T07:51:47.182Z,23776
2018-08-25T07:52:27.781Z,12160
2018-08-25T07:53:08.334Z,20864
2018-08-25T07:53:48.983Z,39040
2018-08-25T07:54:29.459Z,19712
2018-08-25T07:55:10.054Z,49856
2018-08-25T07:55:50.607Z,51584
2018-08-25T07:56:31.184Z,32800
2018-08-25T07:57:11.732Z,19616
2018-08-25T07:57:52.294Z,42720
2018-08-25T07:58:33.041Z,53696
2018-08-25T07:59:13.521Z,52096
2018-08-25T07:59:54.009Z,21824
2018-08-25T08:00:34.599Z,29248
2018-08-25T08:01:15.165Z,43392
2018-08-25T08:01:55.741Z,46720
2018-08-25T08:02:36.316Z,32480
2018-08-25T08:03:16.881Z,19776
2018-08-25T08:03:57.482Z,21248
2018-08-25T08:04:38.040Z,30240
2018-08-25T08:05:18.603Z,22368
2018-08-25T08:05:59.237Z,54560
2018-08-25T08:06:39.862Z,32416
2018-08-25T08:07:20.423Z,31168
2018-08-25T08:08:00.990Z,25632
2018-08-25T08:08:41.551Z,14204
2018-08-25T08:09:22.124Z,14240
2018-08-25T08:10:02.708Z,42400
2018-08-25T08:10:43.268Z,30048
2018-08-25T08:11:23.868Z,29664
2018-08-25T08:12:04.498Z,19584
2018-08-25T08:12:45.039Z,22336
2018-08-25T08:13:25.595Z,19904
2018-08-25T08:14:06.179Z,21216
2018-08-25T08:14:46.746Z,16148
2018-08-25T08:15:27.333Z,17536
2018-08-25T08:16:07.899Z,21888
2018-08-25T08:16:48.483Z,20480
2018-08-25T08:17:29.032Z,15640
2018-08-25T08:18:09.598Z,16512
2018-08-25T08:18:50.173Z,15104
2018-08-25T08:19:30.788Z,19072
2018-08-25T08:20:11.403Z,15348
2018-08-25T08:20:51.978Z,14484
2018-08-25T08:21:32.545Z,15940
2018-08-25T08:22:13.137Z,17056
2018-08-25T08:22:53.709Z,18368
2018-08-25T08:23:34.277Z,15296
2018-08-25T08:24:14.846Z,18080
2018-08-25T08:24:55.442Z,15568
2018-08-25T08:25:36.053Z,18112
2018-08-25T08:26:16.683Z,14996
2018-08-25T08:26:57.323Z,17024
2018-08-25T08:27:37.884Z,16960
2018-08-25T08:28:18.454Z,18208
2018-08-25T08:28:59.084Z,17856
2018-08-25T08:29:39.685Z,17632
2018-08-25T08:30:20.256Z,17120
2018-08-25T08:31:00.803Z,15956
2018-08-25T08:31:41.366Z,13640
2018-08-25T08:32:21.929Z,14600
2018-08-25T08:33:02.645Z,14512
2018-08-25T08:33:43.207Z,15004
2018-08-25T08:34:24.036Z,14308
2018-08-25T08:35:04.721Z,15492
2018-08-25T08:35:45.349Z,15360
2018-08-25T08:36:25.977Z,15384
2018-08-25T08:37:06.855Z,15136
2018-08-25T08:37:47.563Z,14088
2018-08-25T08:38:28.120Z,13944
2018-08-25T08:39:08.683Z,13580
2018-08-25T08:39:49.239Z,13688
2018-08-25T08:40:29.893Z,14432
2018-08-25T08:41:10.457Z,14252
2018-08-25T08:41:51.027Z,13920
2018-08-25T08:42:31.594Z,13524
2018-08-25T08:43:12.170Z,14052
2018-08-25T08:43:52.716Z,14072
2018-08-25T08:44:33.289Z,13808
2018-08-25T08:45:13.849Z,13736
2018-08-25T08:45:54.444Z,12528
2018-08-25T08:46:35.012Z,12584
2018-08-25T08:47:15.623Z,13220
2018-08-25T08:47:56.155Z,12088
2018-08-25T08:48:36.771Z,12388
2018-08-25T08:49:17.322Z,12468
2018-08-25T08:49:58.053Z,13224
2018-08-25T08:50:38.548Z,13132
2018-08-25T08:51:19.106Z,13296
2018-08-25T08:51:59.695Z,13272
2018-08-25T08:52:40.242Z,13080
2018-08-25T08:53:20.806Z,12872
2018-08-25T08:54:01.394Z,12664
2018-08-25T08:54:41.989Z,12328
2018-08-25T08:55:22.645Z,12140
2018-08-25T08:56:03.213Z,12088
2018-08-25T08:56:43.991Z,12052
2018-08-25T08:57:24.928Z,12068
2018-08-25T08:58:05.493Z,12204
2018-08-25T08:58:46.797Z,12228
2018-08-25T08:59:27.392Z,12296
2018-08-25T09:00:07.980Z,12456
2018-08-25T09:00:48.569Z,12488
2018-08-25T09:03:26.946Z,12024
2018-08-25T09:04:07.518Z,11792
2018-08-25T09:04:48.085Z,11652
2018-08-25T09:05:28.684Z,11516
2018-08-25T09:06:09.293Z,11400
2018-08-25T09:06:49.876Z,11328
2018-08-25T09:07:30.486Z,11216
2018-08-25T09:08:11.052Z,11188
2018-08-25T09:08:51.641Z,10864
2018-08-25T09:09:32.529Z,10904
2018-08-25T09:10:13.318Z,11180
2018-08-25T09:10:53.944Z,11400
2018-08-25T09:11:34.621Z,11596
2018-08-25T09:12:15.081Z,11712
2018-08-25T09:12:55.644Z,11628
2018-08-25T09:13:36.192Z,11588
2018-08-25T09:14:16.763Z,11376
2018-08-25T09:14:57.317Z,11096
2018-08-25T09:15:37.923Z,11212
2018-08-25T09:16:18.492Z,11304
2018-08-25T09:16:59.043Z,11296
2018-08-25T09:17:39.651Z,11200
2018-08-25T09:18:20.213Z,11040
2018-08-25T09:19:00.808Z,10864
2018-08-25T09:19:41.366Z,10536
2018-08-25T09:20:21.939Z,10188
2018-08-25T09:21:02.549Z,9260
2018-08-25T09:21:43.124Z,8732
2018-08-25T09:22:23.756Z,8860
2018-08-25T09:23:04.368Z,8816
2018-08-25T09:23:44.947Z,8680
2018-08-25T09:24:25.639Z,8564
2018-08-25T09:25:06.277Z,8660
2018-08-25T09:25:46.895Z,8868
2018-08-25T09:26:27.552Z,9120
2018-08-25T09:27:08.111Z,9208